Time;durP1;ratioP1;P1;durP2;ratioP2;P2;SDS_P1;SDS_P2;PMS_P1;PMS_P2;Temp;Humidity;BMP_temperature;BMP_pressure;BME280_temperature;BME280_humidity;BME280_pressure;Samples;Min_cycle;Max_cycle;Signal;HPM_P1;HPM_P2
2022/01/10 00:00:14;;;;;;;5.93;4.68;;;;;;;15.83;61.72;97503.34;3112527;28;20049;-69
2022/01/10 00:01:46;;;;;;;6.55;4.50;;;;;;;15.80;61.86;97502.97;3118544;28;20053;-68
2022/01/10 00:03:19;;;;;;;5.47;4.18;;;;;;;15.79;61.61;97498.63;3114118;28;20029;-69
2022/01/10 00:04:52;;;;;;;9.30;4.55;;;;;;;15.78;61.78;97503.16;3119388;28;20057;-69
2022/01/10 00:06:24;;;;;;;6.38;4.25;;;;;;;15.75;61.74;97492.88;3118992;28;20564;-69
2022/01/10 00:07:55;;;;;;;6.25;4.65;;;;;;;15.75;61.70;97495.56;3120384;28;20049;-69
2022/01/10 00:09:27;;;;;;;7.25;4.72;;;;;;;15.73;61.68;97494.13;3118991;28;20084;-69
2022/01/10 00:10:58;;;;;;;4.72;3.65;;;;;;;15.70;61.84;97486.53;3118788;28;20510;-69
2022/01/10 00:12:30;;;;;;;6.32;4.03;;;;;;;15.68;61.89;97484.06;3117572;28;20045;-69
2022/01/10 00:14:02;;;;;;;5.38;4.05;;;;;;;15.66;61.81;97480.78;3115149;28;20056;-69
2022/01/10 00:15:34;;;;;;;8.35;4.80;;;;;;;15.65;62.01;97481.78;3117327;28;20045;-68
2022/01/10 00:17:06;;;;;;;6.57;3.85;;;;;;;15.62;61.97;97490.22;3116479;28;20044;-68
2022/01/10 00:18:38;;;;;;;6.15;4.10;;;;;;;15.61;61.91;97477.91;3122026;28;20672;-68
2022/01/10 00:20:15;;;;;;;6.65;4.68;;;;;;;15.59;61.92;97480.78;3115766;28;20108;-68
2022/01/10 00:21:47;;;;;;;6.80;5.18;;;;;;;15.59;62.03;97472.75;3119236;28;20045;-69
2022/01/10 00:23:19;;;;;;;5.25;4.10;;;;;;;15.57;62.08;97479.34;3115688;28;20057;-68
2022/01/10 00:24:50;;;;;;;6.45;4.90;;;;;;;15.56;61.99;97483.06;3119497;28;20085;-69
2022/01/10 00:26:22;;;;;;;6.22;3.60;;;;;;;15.53;62.03;97486.16;3122235;28;20060;-68
2022/01/10 00:27:56;;;;;;;5.85;4.60;;;;;;;15.53;61.98;97494.19;3115480;28;20055;-68
2022/01/10 00:29:27;;;;;;;5.30;4.18;;;;;;;15.50;62.17;97491.94;3118370;28;20053;-68
2022/01/10 00:30:59;;;;;;;9.15;4.15;;;;;;;15.48;62.02;97502.81;3118574;28;20527;-68
2022/01/10 00:32:31;;;;;;;5.18;3.92;;;;;;;15.45;62.08;97499.75;3117548;28;20048;-68
2022/01/10 00:34:03;;;;;;;5.38;4.07;;;;;;;15.44;62.09;97501.63;3120750;28;20046;-69
2022/01/10 00:35:37;;;;;;;5.78;4.00;;;;;;;15.42;62.25;97503.66;3116265;28;20053;-68
2022/01/10 00:37:09;;;;;;;6.15;3.80;;;;;;;15.40;62.24;97505.72;3120344;28;20063;-68
2022/01/10 00:38:41;;;;;;;7.70;4.85;;;;;;;15.39;62.30;97515.59;3120110;28;20080;-68
2022/01/10 00:40:15;;;;;;;5.40;3.70;;;;;;;15.36;62.27;97508.00;3113582;28;21773;-68
2022/01/10 00:41:47;;;;;;;6.95;4.72;;;;;;;15.35;62.20;97522.41;3105119;28;20042;-68
2022/01/10 00:43:30;;;;;;;4.55;4.07;;;;;;;15.32;62.41;97517.47;3116884;28;20059;-68
2022/01/10 00:45:02;;;;;;;6.63;4.65;;;;;;;15.32;62.17;97520.16;3117472;28;20114;-68
2022/01/10 00:46:34;;;;;;;4.85;4.00;;;;;;;15.30;62.23;97522.22;3118733;28;20057;-68
2022/01/10 00:48:06;;;;;;;6.00;4.18;;;;;;;15.28;62.36;97526.13;3115915;28;20044;-68
2022/01/10 00:49:38;;;;;;;5.07;4.03;;;;;;;15.27;62.29;97522.63;3112571;28;20049;-69
2022/01/10 00:51:12;;;;;;;6.25;4.60;;;;;;;15.25;62.37;97522.00;3113502;28;20860;-69
2022/01/10 00:52:44;;;;;;;4.68;3.70;;;;;;;15.22;62.43;97525.09;3114432;28;20136;-69
2022/01/10 00:54:16;;;;;;;7.15;5.03;;;;;;;15.23;62.44;97529.41;3114226;28;20037;-69
2022/01/10 00:55:48;;;;;;;4.63;4.15;;;;;;;15.18;62.24;97522.03;3115238;28;20072;-69
2022/01/10 00:57:20;;;;;;;5.75;3.97;;;;;;;15.16;62.42;97529.44;3118747;28;20600;-69
2022/01/10 00:58:52;;;;;;;7.00;4.57;;;;;;;15.16;62.36;97539.28;3103000;28;20041;-69
2022/01/10 01:00:24;;;;;;;5.50;4.35;;;;;;;15.14;62.43;97544.00;3112087;28;20060;-69
2022/01/10 01:01:56;;;;;;;6.00;4.50;;;;;;;15.12;62.48;97540.72;3121855;28;20041;-69
2022/01/10 01:03:28;;;;;;;7.47;4.38;;;;;;;15.10;62.49;97540.09;3120617;28;20072;-69
2022/01/10 01:05:00;;;;;;;7.18;4.13;;;;;;;15.08;62.71;97542.19;3120569;28;20643;-69
2022/01/10 01:06:34;;;;;;;7.30;3.70;;;;;;;15.05;62.53;97540.75;3113528;28;20049;-69
2022/01/10 01:08:08;;;;;;;4.82;3.63;;;;;;;15.05;62.75;97539.94;3116272;28;20045;-69
2022/01/10 01:09:44;;;;;;;4.68;3.20;;;;;;;15.04;62.55;97541.75;3118395;28;20704;-69
2022/01/10 01:13:26;;;;;;;5.50;3.47;;;;;;;15.00;62.71;97550.41;3071624;28;20067;-68
2022/01/10 01:15:17;;;;;;;5.72;3.30;;;;;;;14.98;62.65;97548.75;3074339;28;20802;-69
2022/01/10 01:16:57;;;;;;;4.68;3.63;;;;;;;14.97;62.69;97546.28;3106025;28;20080;-69
2022/01/10 01:19:01;;;;;;;5.05;3.42;;;;;;;14.95;62.74;97551.81;3114064;28;20055;-69
2022/01/10 01:20:41;;;;;;;4.63;3.90;;;;;;;14.92;62.65;97548.75;3116132;28;20056;-69
2022/01/10 01:24:06;;;;;;;5.15;3.90;;;;;;;14.90;62.81;97548.94;3119180;28;20041;-69
2022/01/10 01:25:38;;;;;;;6.68;3.97;;;;;;;14.88;62.85;97551.03;3118926;28;20144;-69
2022/01/10 01:27:10;;;;;;;5.97;4.03;;;;;;;14.86;62.63;97550.41;3115251;28;20667;-68
2022/01/10 01:28:42;;;;;;;4.70;3.17;;;;;;;14.83;62.81;97544.66;3117784;28;20138;-68
2022/01/10 01:30:14;;;;;;;6.18;3.65;;;;;;;14.83;62.96;97550.00;3116291;28;20056;-68
2022/01/10 01:31:46;;;;;;;5.40;3.88;;;;;;;14.81;62.86;97544.84;3115217;28;20049;-69
2022/01/10 01:33:18;;;;;;;4.68;3.45;;;;;;;14.80;62.88;97548.56;3105336;28;20581;-69
2022/01/10 01:34:50;;;;;;;5.95;3.33;;;;;;;14.78;62.92;97547.94;3118624;28;20048;-68
2022/01/10 01:36:24;;;;;;;3.55;2.92;;;;;;;14.76;62.81;97547.31;3120069;28;20485;-69
2022/01/10 01:37:58;;;;;;;5.57;3.28;;;;;;;14.74;62.91;97542.19;3118984;28;20340;-69
2022/01/10 01:39:31;;;;;;;4.88;3.42;;;;;;;14.72;62.84;97548.75;3118321;28;20042;-68
2022/01/10 01:41:24;;;;;;;5.85;3.80;;;;;;;14.70;62.92;97546.28;3113241;28;20057;-69
2022/01/10 01:42:56;;;;;;;5.22;3.42;;;;;;;14.69;62.89;97539.31;3121985;28;20104;-68
2022/01/10 01:44:28;;;;;;;5.38;3.50;;;;;;;14.69;62.94;97543.84;3115547;28;20052;-68
2022/01/10 01:46:00;;;;;;;5.20;3.80;;;;;;;14.67;62.99;97537.88;3114927;28;20584;-68
2022/01/10 01:47:32;;;;;;;3.40;3.03;;;;;;;14.66;62.94;97542.38;3117801;28;20176;-68
2022/01/10 01:49:05;;;;;;;5.28;3.55;;;;;;;14.65;62.96;97538.06;3113423;28;20736;-69
2022/01/10 01:50:37;;;;;;;4.05;3.20;;;;;;;14.63;63.03;97539.31;3117500;28;20084;-68
2022/01/10 01:52:09;;;;;;;6.97;3.90;;;;;;;14.63;63.05;97539.31;3113411;28;20079;-69
2022/01/10 01:53:43;;;;;;;5.60;4.00;;;;;;;14.61;62.90;97533.34;3116018;28;20313;-68
2022/01/10 01:55:15;;;;;;;6.18;3.78;;;;;;;14.60;63.06;97535.22;3113330;28;20132;-68
2022/01/10 01:56:47;;;;;;;4.15;3.35;;;;;;;14.61;63.05;97525.34;3120536;28;20141;-69
2022/01/10 01:58:19;;;;;;;7.78;3.47;;;;;;;14.61;62.87;97531.50;3113607;28;20135;-69
2022/01/10 01:59:51;;;;;;;5.13;3.33;;;;;;;14.63;63.02;97529.47;3117421;28;20049;-69
2022/01/10 02:01:25;;;;;;;5.88;3.90;;;;;;;14.64;62.84;97530.28;3113907;28;20057;-69
2022/01/10 02:02:57;;;;;;;6.18;4.75;;;;;;;14.64;62.92;97519.59;3117455;28;20072;-69
2022/01/10 02:04:29;;;;;;;4.25;2.92;;;;;;;14.64;62.90;97525.75;3116550;28;20422;-69
2022/01/10 02:06:00;;;;;;;7.18;3.22;;;;;;;14.65;62.90;97526.56;3110060;28;20041;-69
2022/01/10 02:07:32;;;;;;;4.00;3.38;;;;;;;14.63;63.03;97526.78;3118596;28;20053;-69
2022/01/10 02:09:05;;;;;;;3.88;2.88;;;;;;;14.64;62.89;97530.28;3115799;28;20049;-69
2022/01/10 02:10:38;;;;;;;7.38;3.78;;;;;;;14.62;62.94;97530.47;3115764;28;20121;-69
2022/01/10 02:12:09;;;;;;;4.75;3.28;;;;;;;14.61;62.89;97525.34;3117048;28;20057;-69
2022/01/10 02:13:42;;;;;;;5.40;3.22;;;;;;;14.61;63.18;97530.69;3119982;28;20049;-69
2022/01/10 02:15:30;;;;;;;3.35;2.75;;;;;;;14.63;62.96;97528.66;3112340;28;20064;-69
2022/01/10 02:17:05;;;;;;;5.20;3.42;;;;;;;14.59;62.87;97528.22;3115380;28;20077;-68
2022/01/10 02:18:37;;;;;;;3.88;2.78;;;;;;;14.60;62.97;97524.53;3120130;28;20648;-69
2022/01/10 02:20:11;;;;;;;4.50;3.47;;;;;;;14.60;63.03;97518.34;3118904;28;20045;-69
2022/01/10 02:21:43;;;;;;;5.82;4.18;;;;;;;14.61;63.14;97530.69;3120369;28;20045;-69
2022/01/10 02:23:16;;;;;;;5.00;3.55;;;;;;;14.59;62.91;97522.88;3111238;28;21451;-69
2022/01/10 02:24:47;;;;;;;5.15;3.65;;;;;;;14.58;63.01;97528.44;3117918;28;20064;-69
2022/01/10 02:26:19;;;;;;;4.00;3.55;;;;;;;14.58;62.92;97525.75;3116630;28;20050;-69
2022/01/10 02:27:52;;;;;;;4.40;3.40;;;;;;;14.56;62.99;97528.63;3112992;28;20049;-69
2022/01/10 02:29:23;;;;;;;4.40;3.28;;;;;;;14.55;62.83;97526.19;3118355;28;20171;-69
2022/01/10 02:30:57;;;;;;;4.93;3.83;;;;;;;14.54;63.08;97520.00;3117965;28;20048;-69
2022/01/10 02:32:29;;;;;;;3.90;2.95;;;;;;;14.53;62.91;97523.69;3113591;28;20055;-69
2022/01/10 02:34:01;;;;;;;5.13;2.90;;;;;;;14.53;63.01;97519.19;3114873;28;20556;-69
2022/01/10 02:35:41;;;;;;;4.75;3.35;;;;;;;14.52;62.92;97522.88;3115021;28;20049;-69
2022/01/10 02:37:30;;;;;;;7.15;4.13;;;;;;;14.51;63.22;97531.03;3117967;28;20136;-69
2022/01/10 02:39:06;;;;;;;5.45;3.15;;;;;;;14.50;63.16;97532.09;3116153;28;20076;-69
2022/01/10 02:40:38;;;;;;;4.68;3.90;;;;;;;14.48;63.10;97521.59;3118201;28;20480;-69
2022/01/10 02:42:10;;;;;;;4.18;3.03;;;;;;;14.49;62.98;97533.13;3115145;28;20056;-69
2022/01/10 02:43:41;;;;;;;4.65;2.92;;;;;;;14.48;63.10;97526.94;3117642;28;20044;-69
2022/01/10 02:45:13;;;;;;;9.00;3.40;;;;;;;14.47;63.05;97533.31;3117294;28;20534;-69
2022/01/10 02:46:46;;;;;;;4.20;3.50;;;;;;;14.46;63.01;97537.00;3107043;28;20041;-68
2022/01/10 02:48:18;;;;;;;6.07;3.00;;;;;;;14.46;63.21;97545.00;3119286;28;20048;-68
2022/01/10 02:49:50;;;;;;;6.88;3.58;;;;;;;14.44;63.00;97536.38;3113287;28;20714;-68
2022/01/10 02:51:24;;;;;;;4.05;3.00;;;;;;;14.44;63.02;97541.72;3111598;28;20072;-69
2022/01/10 02:52:56;;;;;;;4.85;3.28;;;;;;;14.44;63.04;97543.56;3113724;28;20425;-68
2022/01/10 02:54:28;;;;;;;3.75;2.72;;;;;;;14.42;62.96;97543.75;3116314;28;20044;-68
2022/01/10 02:56:00;;;;;;;4.95;3.42;;;;;;;14.42;62.95;97542.94;3112320;28;20102;-68
2022/01/10 02:57:33;;;;;;;4.47;3.78;;;;;;;14.40;62.98;97537.81;3114956;28;20053;-68
2022/01/10 02:59:04;;;;;;;4.95;3.53;;;;;;;14.39;63.10;97549.50;3120265;28;20075;-68
2022/01/10 03:00:36;;;;;;;4.25;2.88;;;;;;;14.39;63.05;97543.34;3114523;28;20518;-68
2022/01/10 03:02:10;;;;;;;3.80;2.83;;;;;;;14.37;63.09;97537.38;3116689;28;20049;-68
2022/01/10 03:03:42;;;;;;;3.65;3.28;;;;;;;14.36;62.97;97535.75;3108442;28;20067;-68
2022/01/10 03:05:13;;;;;;;3.22;2.10;;;;;;;14.37;63.21;97545.41;3117745;28;20045;-69
2022/01/10 03:06:48;;;;;;;4.18;3.22;;;;;;;14.35;63.15;97545.63;3119066;28;20525;-68
2022/01/10 03:08:20;;;;;;;5.45;3.42;;;;;;;14.36;63.03;97549.91;3119244;28;20049;-69
2022/01/10 03:09:52;;;;;;;5.22;2.75;;;;;;;14.35;62.91;97536.75;3117670;28;20041;-69
2022/01/10 03:11:24;;;;;;;5.13;3.38;;;;;;;14.33;62.95;97539.66;3110597;28;20053;-68
2022/01/10 03:12:56;;;;;;;3.15;2.85;;;;;;;14.30;63.03;97535.53;3118665;28;20040;-69
2022/01/10 03:14:28;;;;;;;5.05;3.17;;;;;;;14.29;63.24;97539.25;3116000;28;20484;-69
2022/01/10 03:16:00;;;;;;;6.13;3.47;;;;;;;14.27;63.25;97532.47;3117761;28;20438;-69
2022/01/10 03:17:32;;;;;;;5.90;3.70;;;;;;;14.25;63.23;97534.50;3116690;28;20057;-69
2022/01/10 03:19:04;;;;;;;3.63;3.15;;;;;;;14.25;63.27;97527.31;3119213;28;20057;-69
2022/01/10 03:20:36;;;;;;;4.13;3.25;;;;;;;14.25;63.27;97539.84;3102094;28;20042;-69
2022/01/10 03:22:10;;;;;;;4.85;3.22;;;;;;;14.24;63.23;97527.53;3117519;28;20049;-68
2022/01/10 03:23:42;;;;;;;4.18;2.72;;;;;;;14.24;63.04;97531.03;3115965;28;20523;-69
2022/01/10 03:25:14;;;;;;;3.25;2.67;;;;;;;14.22;63.18;97529.56;3112756;28;20053;-68
2022/01/10 03:26:45;;;;;;;4.70;3.30;;;;;;;14.21;63.17;97525.28;3115861;28;20041;-68
2022/01/10 03:28:16;;;;;;;5.47;2.80;;;;;;;14.21;63.23;97531.44;3115561;28;20724;-68
2022/01/10 03:29:47;;;;;;;4.45;2.70;;;;;;;14.17;63.21;97526.69;3113438;28;20048;-69
2022/01/10 03:31:19;;;;;;;4.35;3.22;;;;;;;14.17;63.20;97526.69;3114333;28;20803;-68
2022/01/10 03:32:51;;;;;;;4.50;3.17;;;;;;;14.17;63.25;97526.69;3112906;28;20045;-68
2022/01/10 03:34:23;;;;;;;3.42;2.55;;;;;;;14.15;63.28;97526.91;3116397;28;20064;-69
2022/01/10 03:35:55;;;;;;;5.20;3.08;;;;;;;14.14;63.35;97525.25;3115874;28;20069;-68
2022/01/10 03:37:28;;;;;;;4.15;2.88;;;;;;;14.13;63.24;97533.47;3120706;28;20047;-68
2022/01/10 03:39:00;;;;;;;5.32;3.55;;;;;;;14.12;63.37;97532.63;3111391;28;20510;-68
2022/01/10 03:40:32;;;;;;;3.85;3.17;;;;;;;14.14;63.13;97538.56;3113532;28;20069;-69
2022/01/10 03:42:05;;;;;;;5.90;3.35;;;;;;;14.13;63.15;97528.94;3114939;28;20052;-69
2022/01/10 03:43:37;;;;;;;3.97;2.45;;;;;;;14.14;63.49;97530.56;3114486;28;20049;-68
2022/01/10 03:45:10;;;;;;;2.50;2.28;;;;;;;14.17;63.29;97537.34;3115589;28;20045;-69
2022/01/10 03:46:42;;;;;;;3.42;2.50;;;;;;;14.19;63.26;97537.97;3116809;28;20077;-69
2022/01/10 03:48:14;;;;;;;3.15;2.63;;;;;;;14.20;63.48;97531.63;3112526;28;20128;-69
2022/01/10 03:49:46;;;;;;;4.32;2.80;;;;;;;14.21;63.22;97530.63;3112120;28;20046;-69
2022/01/10 03:51:18;;;;;;;5.47;3.00;;;;;;;14.23;63.12;97539.22;3114239;28;20704;-69
2022/01/10 03:52:51;;;;;;;4.18;2.95;;;;;;;14.24;63.14;97535.53;3114299;28;20525;-67
2022/01/10 03:54:23;;;;;;;2.55;2.25;;;;;;;14.24;62.95;97541.69;3114104;28;20045;-69
2022/01/10 03:55:55;;;;;;;3.25;2.30;;;;;;;14.25;63.14;97545.16;3115317;28;20045;-68
2022/01/10 03:57:27;;;;;;;3.75;2.90;;;;;;;14.25;63.10;97548.66;3113370;28;20049;-69
2022/01/10 03:58:59;;;;;;;2.03;1.88;;;;;;;14.25;63.19;97542.50;3109423;28;20041;-69
2022/01/10 04:00:31;;;;;;;3.45;2.78;;;;;;;14.24;63.07;97541.69;3114207;28;20042;-69
2022/01/10 04:02:04;;;;;;;4.97;2.58;;;;;;;14.26;63.27;97541.47;3115954;28;20053;-69
2022/01/10 04:03:36;;;;;;;2.50;2.08;;;;;;;14.26;63.27;97552.13;3116877;28;20140;-68
2022/01/10 04:05:09;;;;;;;3.03;2.50;;;;;;;14.25;63.12;97550.50;3114027;28;20046;-68
2022/01/10 04:06:42;;;;;;;3.85;2.35;;;;;;;14.24;63.05;97549.69;3114406;28;20745;-68
2022/01/10 04:08:15;;;;;;;3.70;2.50;;;;;;;14.24;63.08;97547.03;3116435;28;20128;-69
2022/01/10 04:09:48;;;;;;;3.83;2.40;;;;;;;14.23;63.25;97545.34;3118446;28;20052;-68
2022/01/10 04:11:20;;;;;;;2.47;2.28;;;;;;;14.23;63.10;97549.88;3114305;28;20652;-69
2022/01/10 04:12:52;;;;;;;4.22;2.33;;;;;;;14.23;63.10;97552.53;3115272;28;20103;-68
2022/01/10 04:14:22;;;;;;;2.70;2.50;;;;;;;14.23;63.20;97542.69;3116963;28;20046;-69
2022/01/10 04:15:55;;;;;;;2.93;2.07;;;;;;;14.23;63.12;97544.53;3120676;28;20639;-69
2022/01/10 04:17:26;;;;;;;3.83;2.72;;;;;;;14.23;63.06;97544.53;3120023;28;20291;-69
2022/01/10 04:18:58;;;;;;;4.63;2.78;;;;;;;14.22;63.14;97548.25;3119706;28;20526;-69
2022/01/10 04:20:31;;;;;;;3.20;2.50;;;;;;;14.22;63.06;97541.06;3117706;28;20057;-69
2022/01/10 04:22:03;;;;;;;2.78;2.53;;;;;;;14.21;63.22;97541.28;3116719;28;20049;-69
2022/01/10 04:23:37;;;;;;;3.15;2.85;;;;;;;14.19;63.05;97549.47;3120781;28;20179;-69
2022/01/10 04:25:09;;;;;;;4.78;2.85;;;;;;;14.22;62.95;97542.91;3117900;28;20056;-69
2022/01/10 04:26:43;;;;;;;3.03;2.35;;;;;;;14.20;63.08;97550.28;3117643;28;20057;-69
2022/01/10 04:28:15;;;;;;;2.92;2.30;;;;;;;14.21;63.09;97551.94;3121012;28;20718;-69
2022/01/10 04:29:47;;;;;;;2.70;2.03;;;;;;;14.19;63.15;97543.31;3121741;28;20054;-69
2022/01/10 04:31:19;;;;;;;3.50;2.80;;;;;;;14.19;63.02;97551.31;3113067;28;20053;-69
2022/01/10 04:32:51;;;;;;;3.30;2.33;;;;;;;14.17;63.09;97554.16;3119620;28;20057;-68
2022/01/10 04:34:22;;;;;;;2.92;1.98;;;;;;;14.16;63.27;97549.88;3117146;28;20041;-68
2022/01/10 04:35:54;;;;;;;3.95;2.75;;;;;;;14.16;63.23;97551.72;3117993;28;20053;-68
2022/01/10 04:37:26;;;;;;;5.20;2.72;;;;;;;14.16;63.10;97554.38;3110384;28;20045;-68
2022/01/10 04:39:00;;;;;;;3.85;2.70;;;;;;;14.14;63.32;97554.56;3107098;28;20049;-68
2022/01/10 04:40:31;;;;;;;2.38;2.17;;;;;;;14.13;63.19;97547.59;3116608;28;20049;-69
2022/01/10 04:42:04;;;;;;;2.13;1.92;;;;;;;14.14;63.25;97551.09;3116264;28;20071;-69
2022/01/10 04:43:36;;;;;;;2.65;2.42;;;;;;;14.13;63.14;97550.28;3108279;28;20622;-69
2022/01/10 04:45:08;;;;;;;2.67;2.20;;;;;;;14.14;63.14;97557.25;3113944;28;20053;-68
2022/01/10 04:46:40;;;;;;;4.15;2.15;;;;;;;14.13;63.33;97560.94;3122957;28;20233;-69
2022/01/10 04:48:15;;;;;;;3.05;2.25;;;;;;;14.13;63.09;97554.78;3121931;28;20462;-69
2022/01/10 04:50:05;;;;;;;3.10;2.10;;;;;;;14.11;63.12;97560.31;3117255;28;20054;-69
2022/01/10 04:51:38;;;;;;;3.50;2.15;;;;;;;14.10;63.12;97561.34;3117605;28;20053;-69
2022/01/10 04:53:09;;;;;;;2.75;2.45;;;;;;;14.09;63.05;97559.69;3120659;28;20059;-69
2022/01/10 04:54:42;;;;;;;3.85;2.95;;;;;;;14.08;63.25;97561.53;3115820;28;20049;-69
2022/01/10 04:56:16;;;;;;;3.05;1.95;;;;;;;14.07;63.25;97564.41;3114084;28;20064;-69
2022/01/10 04:57:48;;;;;;;2.80;2.55;;;;;;;14.06;63.10;97571.56;3121105;28;20051;-69
2022/01/10 04:59:20;;;;;;;2.60;2.38;;;;;;;14.06;63.20;97578.75;3113827;28;20050;-69
2022/01/10 05:00:53;;;;;;;2.70;2.03;;;;;;;14.05;63.35;97574.44;3112986;28;20042;-69
2022/01/10 05:02:25;;;;;;;2.90;2.08;;;;;;;14.04;63.06;97578.97;3119239;28;20651;-69
2022/01/10 05:03:57;;;;;;;3.88;2.60;;;;;;;14.03;63.18;97579.16;3107522;28;20064;-69
2022/01/10 05:05:29;;;;;;;2.25;1.95;;;;;;;14.03;63.15;97585.31;3116253;28;20041;-69
2022/01/10 05:07:01;;;;;;;2.60;1.85;;;;;;;14.04;63.26;97576.31;3117435;28;20664;-69
2022/01/10 05:08:33;;;;;;;1.70;1.60;;;;;;;14.03;63.17;97582.63;3116648;28;20133;-69
2022/01/10 05:10:07;;;;;;;4.70;3.08;;;;;;;14.04;63.21;97584.31;3115610;28;20764;-69
2022/01/10 05:11:40;;;;;;;4.07;2.45;;;;;;;14.07;63.28;97586.56;3119989;28;20048;-69
2022/01/10 05:13:12;;;;;;;3.45;2.22;;;;;;;14.14;63.07;97591.09;3117174;28;20045;-69
2022/01/10 05:14:43;;;;;;;4.30;2.28;;;;;;;14.18;63.10;97584.31;3116131;28;20049;-68
2022/01/10 05:16:16;;;;;;;3.35;2.38;;;;;;;14.26;62.98;97581.47;3116459;28;20596;-69
2022/01/10 05:17:48;;;;;;;2.83;2.03;;;;;;;14.32;62.96;97586.03;3119265;28;20541;-69
2022/01/10 05:19:20;;;;;;;2.22;1.73;;;;;;;14.40;63.07;97583.19;3119818;28;20045;-69
2022/01/10 05:20:52;;;;;;;3.85;2.13;;;;;;;14.46;62.91;97590.38;3120053;28;20048;-68
2022/01/10 05:22:24;;;;;;;2.45;2.10;;;;;;;14.52;62.72;97586.91;3122548;28;22308;-69
2022/01/10 05:23:56;;;;;;;2.20;2.00;;;;;;;14.59;62.70;97580.75;3119716;28;20049;-69
2022/01/10 05:25:28;;;;;;;2.97;2.30;;;;;;;14.66;62.60;97586.94;3116684;28;20480;-69
2022/01/10 05:27:00;;;;;;;2.20;2.00;;;;;;;14.72;62.52;97586.13;3121876;28;20053;-68
2022/01/10 05:28:32;;;;;;;3.55;2.72;;;;;;;14.79;62.43;97586.13;3116209;28;20052;-69
2022/01/10 05:30:05;;;;;;;3.30;1.88;;;;;;;14.85;62.39;97585.28;3119431;28;20049;-69
2022/01/10 05:31:37;;;;;;;2.95;2.35;;;;;;;14.92;62.18;97578.94;3120874;28;20115;-69
2022/01/10 05:33:09;;;;;;;2.13;1.63;;;;;;;15.00;62.23;97585.13;3118456;28;20049;-68
2022/01/10 05:34:41;;;;;;;3.80;2.40;;;;;;;15.05;62.05;97590.66;3118215;28;20053;-69
2022/01/10 05:36:13;;;;;;;3.63;2.78;;;;;;;15.09;61.95;97587.34;3118898;28;20046;-69
2022/01/10 05:37:44;;;;;;;2.75;2.47;;;;;;;15.14;61.78;97589.41;3120746;28;20041;-69
2022/01/10 05:39:16;;;;;;;3.22;2.63;;;;;;;15.17;61.94;97589.00;3119119;28;20051;-69
2022/01/10 05:40:50;;;;;;;2.70;2.28;;;;;;;15.22;61.87;97594.56;3121562;28;20107;-68
2022/01/10 05:42:21;;;;;;;2.97;1.90;;;;;;;15.22;61.86;97583.88;3120922;28;20046;-69
2022/01/10 05:43:55;;;;;;;3.58;2.22;;;;;;;15.27;61.86;97584.06;3119801;28;20053;-69
2022/01/10 05:45:27;;;;;;;5.00;2.65;;;;;;;15.31;61.62;97585.28;3114270;28;20683;-69
2022/01/10 05:47:01;;;;;;;2.20;2.00;;;;;;;15.35;61.72;97588.34;3122029;28;20414;-69
2022/01/10 05:48:34;;;;;;;2.80;2.08;;;;;;;15.38;61.65;97580.75;3121435;28;20697;-69
2022/01/10 05:50:06;;;;;;;4.75;2.58;;;;;;;15.43;61.72;97577.44;3119461;28;20123;-69
2022/01/10 05:51:38;;;;;;;;;;;;;;;15.48;61.52;97574.97;3119054;28;21290;-68
2022/01/10 05:53:11;;;;;;;2.80;2.05;;;;;;;15.54;61.37;97581.34;3116810;28;21395;-69
2022/01/10 05:54:43;;;;;;;2.45;2.00;;;;;;;15.57;61.42;97575.56;3120180;28;20048;-69
2022/01/10 05:56:16;;;;;;;2.83;2.35;;;;;;;15.62;61.25;97575.75;3119981;28;20045;-69
2022/01/10 05:57:48;;;;;;;2.13;1.77;;;;;;;15.66;61.36;97577.00;3118675;28;20060;-69
2022/01/10 05:59:20;;;;;;;3.75;2.50;;;;;;;15.69;61.14;97581.97;3121898;28;20045;-68
2022/01/10 06:00:52;;;;;;;2.40;2.20;;;;;;;15.72;61.26;97584.22;3118261;28;20045;-68
2022/01/10 06:02:24;;;;;;;3.53;2.42;;;;;;;15.76;61.18;97593.44;3113407;28;20068;-68
2022/01/10 06:03:56;;;;;;;1.73;1.63;;;;;;;15.78;61.07;97588.72;3105012;28;20060;-68
2022/01/10 06:05:31;;;;;;;2.17;1.80;;;;;;;15.79;61.11;97581.50;3115446;28;20041;-69
2022/01/10 06:07:03;;;;;;;2.60;1.88;;;;;;;15.82;61.08;97587.28;3118052;28;20044;-68
2022/01/10 06:08:35;;;;;;;2.03;1.75;;;;;;;15.84;61.05;97582.50;3116973;28;20055;-69
2022/01/10 06:10:08;;;;;;;1.88;1.77;;;;;;;15.86;60.92;97585.81;3121833;28;20545;-68
2022/01/10 06:11:41;;;;;;;2.58;1.90;;;;;;;15.88;60.94;97584.75;3116290;28;20099;-69
2022/01/10 06:13:14;;;;;;;2.50;2.30;;;;;;;15.90;60.88;97588.88;3117766;28;20049;-69
2022/01/10 06:14:45;;;;;;;1.48;1.30;;;;;;;15.92;60.81;97591.34;3120012;28;20429;-69
2022/01/10 06:16:17;;;;;;;2.33;1.73;;;;;;;15.93;61.00;97592.97;3114320;28;20064;-69
2022/01/10 06:17:50;;;;;;;3.17;2.35;;;;;;;15.94;60.87;97591.97;3118220;28;20651;-69
2022/01/10 06:19:21;;;;;;;2.65;2.10;;;;;;;15.95;60.92;97590.91;3118962;28;20045;-69
2022/01/10 06:20:54;;;;;;;2.72;1.75;;;;;;;15.95;60.94;97593.59;3106915;28;20040;-69
2022/01/10 06:22:26;;;;;;;2.17;1.98;;;;;;;15.96;61.00;97592.53;3117500;28;20136;-69
2022/01/10 06:23:58;;;;;;;3.15;2.20;;;;;;;15.96;60.70;97597.91;3113974;28;20044;-69
2022/01/10 06:25:30;;;;;;;2.75;1.75;;;;;;;15.96;60.82;97595.22;3114773;28;20041;-69
2022/01/10 06:27:04;;;;;;;2.20;1.58;;;;;;;15.97;60.84;97599.56;3117812;28;20045;-69
2022/01/10 06:28:36;;;;;;;3.70;2.25;;;;;;;15.96;60.86;97597.91;3121406;28;20037;-69
2022/01/10 06:30:08;;;;;;;2.58;1.88;;;;;;;15.96;60.76;97592.53;3114834;28;20132;-69
2022/01/10 06:31:40;;;;;;;3.53;2.50;;;;;;;15.96;60.83;97600.56;3118866;28;20055;-69
2022/01/10 06:33:12;;;;;;;2.05;1.67;;;;;;;15.96;60.93;97603.25;3113689;28;20045;-69
2022/01/10 06:34:44;;;;;;;2.88;2.10;;;;;;;15.97;60.85;97607.59;3119328;28;20053;-69
2022/01/10 06:36:16;;;;;;;2.40;2.20;;;;;;;15.97;60.68;97596.88;3116333;28;20722;-69
2022/01/10 06:37:48;;;;;;;2.28;1.95;;;;;;;15.96;60.71;97604.06;3108273;28;20053;-69
2022/01/10 06:39:20;;;;;;;2.55;2.20;;;;;;;15.96;60.73;97611.25;3117277;28;20048;-69
2022/01/10 06:40:52;;;;;;;2.75;1.83;;;;;;;15.95;60.66;97615.81;3115892;28;20849;-69
2022/01/10 06:42:25;;;;;;;1.67;1.58;;;;;;;15.96;60.91;97611.25;3116541;28;20044;-69
2022/01/10 06:43:57;;;;;;;2.95;2.63;;;;;;;15.95;60.75;97615.81;3118067;28;20057;-69
2022/01/10 06:45:29;;;;;;;2.35;2.00;;;;;;;15.94;60.88;97618.69;3120677;28;20044;-69
2022/01/10 06:47:01;;;;;;;2.67;1.77;;;;;;;15.93;60.72;97620.53;3110647;28;20060;-69
2022/01/10 06:48:33;;;;;;;2.35;1.80;;;;;;;15.92;60.91;97623.44;3115104;28;20061;-69
2022/01/10 06:50:07;;;;;;;1.70;1.48;;;;;;;15.93;60.87;97628.56;3118326;28;20044;-69
2022/01/10 06:51:38;;;;;;;2.25;1.73;;;;;;;15.91;60.77;97629.78;3117168;28;20406;-69
2022/01/10 06:53:10;;;;;;;2.22;1.77;;;;;;;15.91;60.90;97629.78;3107676;28;20049;-69
2022/01/10 06:54:42;;;;;;;2.65;1.88;;;;;;;15.91;60.71;97643.16;3115899;28;20060;-70
2022/01/10 06:56:14;;;;;;;2.75;1.33;;;;;;;15.90;60.91;97623.63;3116821;28;20064;-69
2022/01/10 06:57:48;;;;;;;2.15;1.95;;;;;;;15.90;60.78;97633.50;3108028;28;20063;-70
2022/01/10 06:59:20;;;;;;;3.90;2.17;;;;;;;15.88;60.97;97631.06;3112481;28;20064;-70
2022/01/10 07:00:52;;;;;;;2.38;1.45;;;;;;;15.89;60.95;97637.22;3115982;28;20049;-69
2022/01/10 07:02:24;;;;;;;3.25;2.10;;;;;;;15.90;60.87;97633.50;3113208;28;20052;-70
2022/01/10 07:03:57;;;;;;;2.25;1.48;;;;;;;15.92;61.03;97639.47;3118087;28;20048;-69
2022/01/10 07:05:29;;;;;;;1.75;1.60;;;;;;;15.92;60.84;97636.81;3113644;28;20085;-69
2022/01/10 07:07:01;;;;;;;2.17;1.55;;;;;;;15.93;60.98;97643.78;3113640;28;20976;-68
2022/01/10 07:08:33;;;;;;;1.85;1.52;;;;;;;15.95;60.93;97645.22;3118345;28;20051;-69
2022/01/10 07:10:06;;;;;;;2.35;1.65;;;;;;;15.96;61.00;97651.38;3116941;28;20553;-69
2022/01/10 07:11:38;;;;;;;2.30;1.73;;;;;;;15.97;61.01;97650.38;3115476;28;20527;-69
2022/01/10 07:13:11;;;;;;;1.88;1.40;;;;;;;15.98;60.82;97650.16;3110284;28;20052;-69
2022/01/10 07:14:43;;;;;;;2.13;1.92;;;;;;;15.99;60.87;97653.63;3116361;28;20148;-69
2022/01/10 07:16:15;;;;;;;2.20;1.50;;;;;;;16.00;60.87;97657.97;3117324;28;20049;-69
2022/01/10 07:17:49;;;;;;;1.90;1.25;;;;;;;15.99;60.89;97670.53;3115239;28;20071;-69
2022/01/10 07:19:22;;;;;;;2.85;1.48;;;;;;;15.99;60.87;97667.84;3115055;28;20045;-69
2022/01/10 07:20:54;;;;;;;1.92;1.33;;;;;;;16.00;60.80;97684.72;3114120;28;20057;-70